Time;durP1;ratioP1;P1;durP2;ratioP2;P2;SDS_P1;SDS_P2;PMS_P1;PMS_P2;Temp;Humidity;BMP_temperature;BMP_pressure;BME280_temperature;BME280_humidity;BME280_pressure;Samples;Min_cycle;Max_cycle;Signal;HPM_P1;HPM_P2
2024/04/14 00:01:24;;;;;;;;;;;;;;;17.69;61.61;100355.41;4568694;26;19975;-71
2024/04/14 00:03:25;;;;;;;;;;;;;;;17.68;61.45;100361.84;4569509;26;19935;-70
2024/04/14 00:05:26;;;;;;;;;;;;;;;17.62;61.39;100356.16;4570484;26;20374;-72
2024/04/14 00:07:26;;;;;;;;;;;;;;;17.60;61.65;100363.63;4569026;26;19927;-71
2024/04/14 00:09:27;;;;;;;;;;;;;;;17.66;61.41;100364.75;4536710;26;19928;-73
2024/04/14 00:11:27;;;;;;;;;;;;;;;17.65;61.28;100349.53;4569440;26;19928;-72
2024/04/14 00:13:27;;;;;;;;;;;;;;;17.61;61.32;100354.47;4569458;26;20356;-70
2024/04/14 00:15:28;;;;;;;;;;;;;;;17.58;61.56;100346.72;4569175;26;20356;-73
2024/04/14 00:17:28;;;;;;;;;;;;;;;17.44;61.76;100348.38;4569233;26;20286;-71
2024/04/14 00:19:28;;;;;;;;;;;;;;;17.45;61.88;100343.84;4569109;26;20615;-71
2024/04/14 00:21:29;;;;;;;;;;;;;;;17.48;61.80;100348.84;4568183;26;20302;-71
2024/04/14 00:23:30;;;;;;;;;;;;;;;17.50;61.53;100356.78;4569522;26;20403;-71
2024/04/14 00:25:30;;;;;;;;;;;;;;;17.64;61.49;100344.34;4568753;26;19928;-72
2024/04/14 00:27:30;;;;;;;;;;;;;;;17.47;61.61;100352.59;4536460;26;19935;-71
2024/04/14 00:29:30;;;;;;;;;;;;;;;17.68;61.27;100337.50;4568325;26;19931;-72
2024/04/14 00:31:32;;;;;;;;;;;;;;;17.61;61.17;100349.06;4567321;26;19996;-71
2024/04/14 00:33:34;;;;;;;;;;;;;;;17.75;60.79;100346.59;4569359;26;19927;-72
2024/04/14 00:35:35;;;;;;;;;;;;;;;17.59;61.37;100343.00;4569339;26;20367;-71
2024/04/14 00:37:35;;;;;;;;;;;;;;;17.53;61.46;100334.78;4536829;26;19935;-72
2024/04/14 00:39:35;;;;;;;;;;;;;;;17.31;62.25;100335.50;4568438;26;19927;-71
2024/04/14 00:41:36;;;;;;;;;;;;;;;17.25;62.43;100333.53;4568185;26;19956;-71
2024/04/14 00:43:37;;;;;;;;;;;;;;;17.22;62.73;100331.19;4568710;26;20336;-71
2024/04/14 00:45:37;;;;;;;;;;;;;;;17.40;62.06;100324.59;4569344;26;19935;-72
2024/04/14 00:47:38;;;;;;;;;;;;;;;17.47;61.84;100330.97;4568615;26;19927;-71
2024/04/14 00:49:38;;;;;;;;;;;;;;;17.51;61.68;100324.16;4568611;26;19959;-71
2024/04/14 00:51:39;;;;;;;;;;;;;;;17.50;61.90;100329.78;4568049;26;19928;-72
2024/04/14 00:53:39;;;;;;;;;;;;;;;17.60;61.55;100331.19;4568464;26;19956;-72
2024/04/14 00:55:40;;;;;;;;;;;;;;;17.57;61.42;100328.00;4568528;26;20263;-71
2024/04/14 00:57:41;;;;;;;;;;;;;;;17.59;61.36;100324.09;4568408;26;19927;-71
2024/04/14 00:59:42;;;;;;;;;;;;;;;17.37;61.82;100325.00;4568572;26;19934;-71
2024/04/14 01:01:42;;;;;;;;;;;;;;;17.13;62.41;100329.56;4567813;25;20268;-71
2024/04/14 01:03:43;;;;;;;;;;;;;;;17.15;62.36;100327.53;4568589;26;19928;-71
2024/04/14 01:05:43;;;;;;;;;;;;;;;17.07;62.74;100331.13;4568593;26;19927;-71
2024/04/14 01:07:43;;;;;;;;;;;;;;;17.05;62.74;100326.94;4537776;26;19943;-70
2024/04/14 01:09:44;;;;;;;;;;;;;;;16.97;62.87;100325.97;4539822;26;19938;-71
2024/04/14 01:11:44;;;;;;;;;;;;;;;17.00;63.04;100325.59;4571916;26;20248;-71
2024/04/14 01:13:47;;;;;;;;;;;;;;;17.00;63.21;100331.00;4571385;26;19931;-71
2024/04/14 01:15:49;;;;;;;;;;;;;;;17.26;62.46;100329.81;4571504;26;19935;-71
2024/04/14 01:17:49;;;;;;;;;;;;;;;17.21;62.28;100332.19;4571255;26;19927;-71
2024/04/14 01:19:50;;;;;;;;;;;;;;;17.30;62.37;100314.06;4571033;26;20375;-71
2024/04/14 01:21:50;;;;;;;;;;;;;;;17.15;62.71;100317.56;4571060;26;19935;-71
2024/04/14 01:23:50;;;;;;;;;;;;;;;17.29;62.10;100326.72;4571401;26;19935;-71
2024/04/14 01:25:51;;;;;;;;;;;;;;;17.11;62.42;100331.59;4570687;25;19928;-71
2024/04/14 01:27:51;;;;;;;;;;;;;;;17.11;62.62;100310.00;4571089;26;20400;-70
2024/04/14 01:29:51;;;;;;;;;;;;;;;17.02;63.19;100316.47;4570954;26;19991;-71
2024/04/14 01:31:52;;;;;;;;;;;;;;;16.89;63.12;100311.66;4569157;26;19928;-71
2024/04/14 01:33:52;;;;;;;;;;;;;;;16.53;64.19;100327.41;4570932;26;19935;-71
2024/04/14 01:35:52;;;;;;;;;;;;;;;16.77;63.59;100312.06;4571320;26;19934;-71
2024/04/14 01:37:53;;;;;;;;;;;;;;;16.90;63.18;100316.03;4572014;26;19928;-71
2024/04/14 01:39:53;;;;;;;;;;;;;;;16.88;63.04;100310.81;4567116;25;19935;-74
2024/04/14 01:41:55;;;;;;;;;;;;;;;16.53;63.96;100318.47;4564776;26;19928;-72
2024/04/14 01:43:55;;;;;;;;;;;;;;;16.72;63.65;100310.94;4587459;26;19952;-74
2024/04/14 01:45:56;;;;;;;;;;;;;;;16.60;64.30;100313.19;4589186;26;19932;-76
2024/04/14 01:47:56;;;;;;;;;;;;;;;16.49;64.25;100311.75;4589109;26;19965;-72
2024/04/14 01:49:56;;;;;;;;;;;;;;;16.42;64.04;100313.47;4589381;26;20276;-73
2024/04/14 01:51:57;;;;;;;;;;;;;;;16.58;64.11;100305.28;4578131;25;19927;-74
2024/04/14 01:53:57;;;;;;;;;;;;;;;16.51;63.66;100310.53;4594054;25;19939;-71
2024/04/14 01:55:59;;;;;;;;;;;;;;;16.69;63.69;100304.88;4571502;26;19927;-71
2024/04/14 01:57:59;;;;;;;;;;;;;;;16.76;63.33;100306.84;4550275;26;19928;-72
2024/04/14 02:00:01;;;;;;;;;;;;;;;16.74;63.23;100303.50;4540230;26;19928;-72
2024/04/14 02:02:01;;;;;;;;;;;;;;;16.77;62.85;100303.97;4540081;26;19968;-73
2024/04/14 02:04:02;;;;;;;;;;;;;;;16.86;62.59;100302.06;4540175;26;19927;-71
2024/04/14 02:06:03;;;;;;;;;;;;;;;16.69;63.05;100306.72;4508291;26;19935;-73
2024/04/14 02:08:03;;;;;;;;;;;;;;;16.66;63.82;100307.94;4540262;26;20261;-72
2024/04/14 02:10:04;;;;;;;;;;;;;;;16.34;64.11;100322.44;4539767;26;19935;-72
2024/04/14 02:12:04;;;;;;;;;;;;;;;16.66;63.58;100301.69;4539250;26;20281;-72
2024/04/14 02:14:05;;;;;;;;;;;;;;;16.58;63.16;100296.34;4540223;26;20352;-71
2024/04/14 02:16:05;;;;;;;;;;;;;;;16.68;63.49;100295.09;4539717;26;19939;-73
2024/04/14 02:18:05;;;;;;;;;;;;;;;16.59;63.48;100312.38;4541071;26;19935;-73
2024/04/14 02:20:06;;;;;;;;;;;;;;;16.65;63.32;100295.44;4541457;26;19939;-72
2024/04/14 02:22:06;;;;;;;;;;;;;;;16.48;63.62;100318.97;4541298;26;19935;-72
2024/04/14 02:24:07;;;;;;;;;;;;;;;16.71;63.18;100310.09;4541494;26;19935;-72
2024/04/14 02:26:07;;;;;;;;;;;;;;;16.48;63.90;100315.47;4539989;26;19928;-72
2024/04/14 02:28:08;;;;;;;;;;;;;;;16.61;63.50;100317.56;4539998;26;19940;-72
2024/04/14 02:30:08;;;;;;;;;;;;;;;16.76;62.99;100306.84;4539961;26;19928;-73
2024/04/14 02:32:09;;;;;;;;;;;;;;;16.61;63.45;100315.72;4507096;26;20385;-73
2024/04/14 02:34:09;;;;;;;;;;;;;;;16.56;62.86;100311.88;4555446;26;19928;-72
2024/04/14 02:36:09;;;;;;;;;;;;;;;16.57;63.00;100309.00;4570302;26;19935;-72
2024/04/14 02:38:10;;;;;;;;;;;;;;;16.60;62.87;100314.03;4570202;26;19928;-70
2024/04/14 02:40:10;;;;;;;;;;;;;;;16.69;62.74;100315.69;4570052;25;19927;-71
2024/04/14 02:42:10;;;;;;;;;;;;;;;16.69;62.69;100304.88;4569849;26;20504;-71
2024/04/14 02:44:12;;;;;;;;;;;;;;;16.56;62.80;100310.00;4570002;26;19992;-72
2024/04/14 02:46:12;;;;;;;;;;;;;;;16.62;62.70;100298.53;4570289;26;19996;-71
2024/04/14 02:48:13;;;;;;;;;;;;;;;16.76;62.41;100305.00;4570618;26;20344;-71
2024/04/14 02:50:13;;;;;;;;;;;;;;;16.58;63.10;100296.34;4538079;26;19932;-71
2024/04/14 02:52:13;;;;;;;;;;;;;;;16.62;62.70;100316.56;4570015;26;20276;-71
2024/04/14 02:54:13;;;;;;;;;;;;;;;16.51;63.23;100290.81;4570968;26;19927;-71
2024/04/14 02:56:14;;;;;;;;;;;;;;;16.57;62.94;100295.50;4570867;26;19935;-71
2024/04/14 02:58:14;;;;;;;;;;;;;;;16.69;62.45;100294.09;4570871;26;19928;-73
2024/04/14 03:00:14;;;;;;;;;;;;;;;16.72;62.26;100298.28;4538298;26;20334;-71
2024/04/14 03:02:15;;;;;;;;;;;;;;;16.73;62.60;100293.72;4569851;26;20279;-70
2024/04/14 03:04:15;;;;;;;;;;;;;;;16.42;63.51;100317.00;4570302;26;19973;-71
2024/04/14 03:06:15;;;;;;;;;;;;;;;16.14;64.14;100303.97;4570338;26;19928;-71
2024/04/14 03:08:16;;;;;;;;;;;;;;;16.35;63.43;100299.84;4569779;26;19931;-71
2024/04/14 03:10:16;;;;;;;;;;;;;;;16.21;63.93;100309.53;4569838;25;20346;-71
2024/04/14 03:12:16;;;;;;;;;;;;;;;16.28;63.50;100305.09;4569600;26;19953;-71
2024/04/14 03:14:17;;;;;;;;;;;;;;;16.24;63.46;100313.72;4570704;26;19976;-71
2024/04/14 03:16:17;;;;;;;;;;;;;;;16.38;63.42;100304.91;4570350;26;19934;-71
2024/04/14 03:18:17;;;;;;;;;;;;;;;16.20;63.55;100311.34;4571064;26;19928;-70
2024/04/14 03:20:18;;;;;;;;;;;;;;;16.32;63.55;100310.97;4570323;25;19935;-71
2024/04/14 03:22:19;;;;;;;;;;;;;;;16.33;63.62;100318.91;4569864;26;19935;-71
2024/04/14 03:24:19;;;;;;;;;;;;;;;16.36;63.35;100312.31;4570180;26;19983;-74
2024/04/14 03:26:19;;;;;;;;;;;;;;;16.35;63.38;100311.47;4570634;26;20009;-71
2024/04/14 03:28:21;;;;;;;;;;;;;;;16.37;63.27;100298.66;4570424;26;19935;-71
2024/04/14 03:30:21;;;;;;;;;;;;;;;16.20;63.56;100302.44;4568894;25;19940;-74
2024/04/14 03:32:22;;;;;;;;;;;;;;;16.18;63.50;100290.97;4570354;26;19931;-71
2024/04/14 03:34:22;;;;;;;;;;;;;;;16.19;63.82;100306.16;4569562;26;19955;-71
2024/04/14 03:36:22;;;;;;;;;;;;;;;16.12;64.02;100299.78;4570363;26;19934;-71
2024/04/14 03:38:22;;;;;;;;;;;;;;;16.22;63.89;100297.72;4569995;26;19927;-71
2024/04/14 03:40:23;;;;;;;;;;;;;;;15.86;64.94;100308.97;4570075;25;19938;-71
2024/04/14 03:42:23;;;;;;;;;;;;;;;15.85;64.68;100288.44;4569183;26;19928;-71
2024/04/14 03:44:23;;;;;;;;;;;;;;;15.73;65.53;100304.94;4570260;26;20692;-71
2024/04/14 03:46:24;;;;;;;;;;;;;;;15.73;65.21;100302.25;4569712;26;19927;-71
2024/04/14 03:48:24;;;;;;;;;;;;;;;15.84;64.92;100302.91;4570650;26;19927;-71
2024/04/14 03:50:24;;;;;;;;;;;;;;;15.74;65.16;100313.84;4569873;25;19943;-71
2024/04/14 03:52:25;;;;;;;;;;;;;;;15.61;65.83;100290.13;4569752;26;20284;-71
2024/04/14 03:54:25;;;;;;;;;;;;;;;15.73;65.44;100301.38;4571000;26;20344;-71
2024/04/14 03:56:25;;;;;;;;;;;;;;;15.82;64.74;100302.22;4569772;26;19935;-71
2024/04/14 03:58:25;;;;;;;;;;;;;;;15.89;64.57;100289.75;4571225;26;19927;-71
2024/04/14 04:00:26;;;;;;;;;;;;;;;15.74;64.85;100309.31;4571174;25;20429;-71
2024/04/14 04:02:26;;;;;;;;;;;;;;;15.92;64.02;100296.66;4568538;26;20248;-73
2024/04/14 04:04:26;;;;;;;;;;;;;;;15.97;63.88;100297.81;4569320;26;19934;-73
2024/04/14 04:06:27;;;;;;;;;;;;;;;16.13;63.22;100293.38;4569257;26;19999;-72
2024/04/14 04:08:27;;;;;;;;;;;;;;;16.08;62.84;100303.84;4569217;26;19927;-73
2024/04/14 04:10:28;;;;;;;;;;;;;;;16.24;62.62;100298.38;4570151;25;19937;-73
2024/04/14 04:12:28;;;;;;;;;;;;;;;16.34;62.21;100304.38;4569743;26;20331;-73
2024/04/14 04:14:28;;;;;;;;;;;;;;;16.29;62.02;100298.69;4569236;26;19928;-71
2024/04/14 04:16:29;;;;;;;;;;;;;;;16.30;61.97;100305.78;4569409;26;20349;-71
2024/04/14 04:18:30;;;;;;;;;;;;;;;16.34;61.98;100309.78;4569255;26;19936;-71
2024/04/14 04:20:30;;;;;;;;;;;;;;;16.31;62.07;100312.84;4568848;25;19928;-71
2024/04/14 04:22:30;;;;;;;;;;;;;;;16.35;61.93;100308.75;4568580;26;20370;-71
2024/04/14 04:24:30;;;;;;;;;;;;;;;16.29;62.26;100306.78;4568769;26;20360;-71
2024/04/14 04:26:31;;;;;;;;;;;;;;;16.18;62.57;100313.41;4568744;26;19935;-71
2024/04/14 04:28:32;;;;;;;;;;;;;;;16.03;62.53;100313.31;4569386;26;19928;-71
2024/04/14 04:30:32;;;;;;;;;;;;;;;16.12;62.08;100310.56;4569231;25;19999;-70
2024/04/14 04:32:32;;;;;;;;;;;;;;;15.86;62.38;100311.69;4568868;26;20256;-71
2024/04/14 04:34:32;;;;;;;;;;;;;;;15.68;62.59;100318.06;4568266;26;20248;-70
2024/04/14 04:36:33;;;;;;;;;;;;;;;15.66;62.85;100330.03;4568874;26;20256;-71
2024/04/14 04:38:33;;;;;;;;;;;;;;;15.77;62.54;100312.69;4568356;26;19976;-71
2024/04/14 04:40:34;;;;;;;;;;;;;;;15.73;62.78;100306.78;4567414;25;19928;-72
2024/04/14 04:42:34;;;;;;;;;;;;;;;15.59;62.94;100324.47;4568836;26;19927;-70
2024/04/14 04:44:34;;;;;;;;;;;;;;;15.68;62.34;100311.84;4568647;26;20462;-71
2024/04/14 04:46:34;;;;;;;;;;;;;;;15.54;62.67;100316.09;4568886;26;20458;-71
2024/04/14 04:48:35;;;;;;;;;;;;;;;15.60;62.33;100323.47;4568914;26;19939;-71
2024/04/14 04:50:35;;;;;;;;;;;;;;;15.48;62.56;100324.88;4535631;26;20687;-72
2024/04/14 04:52:35;;;;;;;;;;;;;;;15.47;62.31;100317.78;4568668;26;20505;-71
2024/04/14 04:54:36;;;;;;;;;;;;;;;15.39;62.65;100319.47;4536403;26;20497;-71
2024/04/14 04:56:36;;;;;;;;;;;;;;;15.34;63.13;100315.63;4536459;26;19940;-71
2024/04/14 04:58:36;;;;;;;;;;;;;;;15.34;62.96;100324.53;4567966;26;19927;-71
2024/04/14 05:00:37;;;;;;;;;;;;;;;15.52;62.33;100331.56;4567857;25;20392;-70
2024/04/14 05:02:37;;;;;;;;;;;;;;;15.45;62.60;100326.03;4569298;26;19976;-71
2024/04/14 05:04:37;;;;;;;;;;;;;;;15.54;62.24;100330.38;4568675;26;19927;-70
2024/04/14 05:06:38;;;;;;;;;;;;;;;15.68;62.03;100328.03;4568772;26;20357;-71
2024/04/14 05:08:40;;;;;;;;;;;;;;;15.70;62.08;100332.22;4536535;26;19977;-71
2024/04/14 05:10:40;;;;;;;;;;;;;;;15.68;62.03;100322.63;4568587;25;19928;-71
2024/04/14 05:12:40;;;;;;;;;;;;;;;15.84;61.39;100332.56;4568839;26;20003;-71
2024/04/14 05:14:41;;;;;;;;;;;;;;;15.87;61.01;100327.66;4568474;26;19995;-72
2024/04/14 05:16:41;;;;;;;;;;;;;;;15.96;60.99;100324.94;4569129;26;19935;-70
2024/04/14 05:18:41;;;;;;;;;;;;;;;16.15;60.17;100323.72;4569350;26;19935;-71
2024/04/14 05:20:42;;;;;;;;;;;;;;;16.29;60.13;100328.34;4567794;25;19934;-70
2024/04/14 05:22:42;;;;;;;;;;;;;;;16.26;59.85;100328.69;4536115;26;19938;-71
2024/04/14 05:24:43;;;;;;;;;;;;;;;16.32;59.37;100322.63;4568362;26;19935;-71
2024/04/14 05:26:43;;;;;;;;;;;;;;;16.31;59.61;100325.47;4568334;26;19935;-71
2024/04/14 05:28:44;;;;;;;;;;;;;;;16.45;58.87;100326.59;4535763;26;20474;-71
2024/04/14 05:30:46;;;;;;;;;;;;;;;16.39;59.36;100333.53;4567330;25;19928;-70
2024/04/14 05:32:46;;;;;;;;;;;;;;;16.42;58.81;100333.19;4568632;26;19927;-72
2024/04/14 05:34:49;;;;;;;;;;;;;;;16.49;58.95;100336.84;4567997;26;19996;-71
2024/04/14 05:36:50;;;;;;;;;;;;;;;16.40;59.03;100342.47;4571506;26;20359;-71
2024/04/14 05:38:50;;;;;;;;;;;;;;;16.44;58.99;100341.09;4576151;26;19944;-72
2024/04/14 05:40:51;;;;;;;;;;;;;;;16.42;58.90;100348.56;4575589;25;19927;-71
2024/04/14 05:42:51;;;;;;;;;;;;;;;16.64;58.43;100347.75;4576594;26;19960;-71
2024/04/14 05:44:51;;;;;;;;;;;;;;;16.77;58.47;100343.63;4542998;26;19939;-71
2024/04/14 05:46:53;;;;;;;;;;;;;;;16.69;58.63;100349.91;4569276;26;19938;-71
2024/04/14 05:48:54;;;;;;;;;;;;;;;16.73;58.29;100345.00;4568232;26;20520;-74
2024/04/14 05:50:55;;;;;;;;;;;;;;;16.82;58.17;100344.78;4567452;25;19935;-72
2024/04/14 05:52:55;;;;;;;;;;;;;;;16.96;57.73;100337.78;4568144;26;19935;-71
2024/04/14 05:54:55;;;;;;;;;;;;;;;17.09;57.79;100342.59;4571175;26;19928;-72
2024/04/14 05:56:56;;;;;;;;;;;;;;;17.18;57.75;100337.97;4570928;26;19931;-74
2024/04/14 05:58:56;;;;;;;;;;;;;;;16.99;57.81;100340.16;4571217;26;19935;-73
2024/04/14 06:00:57;;;;;;;;;;;;;;;17.13;57.23;100346.63;4571943;25;20378;-72
2024/04/14 06:02:59;;;;;;;;;;;;;;;17.18;57.09;100345.22;4570610;26;19976;-73
2024/04/14 06:04:59;;;;;;;;;;;;;;;17.25;56.82;100348.88;4570822;26;19946;-72
2024/04/14 06:07:00;;;;;;;;;;;;;;;17.38;56.87;100342.88;4570684;26;19931;-72
2024/04/14 06:09:00;;;;;;;;;;;;;;;17.59;56.37;100348.41;4570315;26;19927;-71
2024/04/14 06:11:01;;;;;;;;;;;;;;;17.72;55.98;100349.66;4570023;25;20426;-72
2024/04/14 06:13:01;;;;;;;;;;;;;;;17.87;55.72;100355.91;4570867;26;19939;-71
2024/04/14 06:15:01;;;;;;;;;;;;;;;18.03;55.39;100354.94;4570859;26;20562;-72
2024/04/14 06:17:01;;;;;;;;;;;;;;;18.16;55.25;100350.75;4570420;26;19955;-72
2024/04/14 06:19:02;;;;;;;;;;;;;;;18.29;55.00;100350.06;4570986;26;19995;-72
2024/04/14 06:21:05;;;;;;;;;;;;;;;18.44;54.79;100348.16;4569890;25;19934;-71
2024/04/14 06:23:06;;;;;;;;;;;;;;;18.59;54.44;100348.16;4575144;26;19931;-72
2024/04/14 06:25:06;;;;;;;;;;;;;;;18.63;54.48;100357.59;4550610;26;19935;-72
2024/04/14 06:27:06;;;;;;;;;;;;;;;18.70;54.38;100360.38;4582340;26;19966;-73
2024/04/14 06:29:09;;;;;;;;;;;;;;;18.76;54.37;100350.63;4583854;25;19972;-73
2024/04/14 06:31:13;;;;;;;;;;;;;;;18.64;54.65;100359.25;4585133;26;19928;-73
2024/04/14 06:33:15;;;;;;;;;;;;;;;18.77;54.63;100352.31;4587013;26;19928;-72
2024/04/14 06:35:15;;;;;;;;;;;;;;;18.94;54.14;100358.34;4585176;26;19927;-71
2024/04/14 06:37:15;;;;;;;;;;;;;;;18.80;54.56;100358.16;4570344;26;20459;-72
2024/04/14 06:39:16;;;;;;;;;;;;;;;18.91;54.46;100348.72;4570795;25;19935;-72
2024/04/14 06:41:16;;;;;;;;;;;;;;;19.07;54.19;100352.22;4570505;26;20351;-71
2024/04/14 06:43:17;;;;;;;;;;;;;;;19.17;54.01;100347.31;4570645;26;20531;-72
2024/04/14 06:45:19;;;;;;;;;;;;;;;19.25;53.69;100351.78;4572476;26;19927;-72
2024/04/14 06:47:20;;;;;;;;;;;;;;;19.36;53.54;100356.69;4573731;26;20302;-72
2024/04/14 06:49:20;;;;;;;;;;;;;;;19.53;53.19;100351.81;4574468;25;19927;-71
2024/04/14 06:51:20;;;;;;;;;;;;;;;19.35;53.50;100352.31;4575150;26;20320;-71
2024/04/14 06:53:21;;;;;;;;;;;;;;;19.55;53.12;100340.78;4570690;26;19939;-71
2024/04/14 06:55:21;;;;;;;;;;;;;;;19.69;52.72;100347.97;4571103;26;19939;-72
2024/04/14 06:57:22;;;;;;;;;;;;;;;19.60;52.86;100349.97;4570837;26;19927;-72
2024/04/14 06:59:22;;;;;;;;;;;;;;;19.77;52.48;100341.56;4570470;25;19927;-72
2024/04/14 07:01:22;;;;;;;;;;;;;;;20.04;51.82;100341.75;4569280;26;19935;-72
2024/04/14 07:03:23;;;;;;;;;;;;;;;20.12;51.81;100332.63;4570336;26;19975;-72
2024/04/14 07:05:23;;;;;;;;;;;;;;;20.04;51.96;100331.72;4568613;26;19927;-72
2024/04/14 07:07:23;;;;;;;;;;;;;;;20.19;51.75;100333.50;4570404;26;19927;-72
2024/04/14 07:09:24;;;;;;;;;;;;;;;20.31;51.38;100340.00;4570091;25;19927;-72
2024/04/14 07:11:24;;;;;;;;;;;;;;;20.37;51.40;100333.78;4569897;26;19931;-72
2024/04/14 07:13:24;;;;;;;;;;;;;;;20.59;50.77;100341.81;4570535;26;20550;-72
2024/04/14 07:15:25;;;;;;;;;;;;;;;20.54;50.98;100331.56;4569801;26;20375;-72
2024/04/14 07:17:25;;;;;;;;;;;;;;;20.25;51.51;100344.38;4570051;26;20272;-72
2024/04/14 07:19:25;;;;;;;;;;;;;;;20.29;51.81;100339.38;4570598;25;19935;-72
2024/04/14 07:21:26;;;;;;;;;;;;;;;20.50;51.25;100337.59;4569915;26;19959;-72
2024/04/14 07:23:28;;;;;;;;;;;;;;;20.61;51.20;100339.69;4538015;26;19974;-72
2024/04/14 07:25:29;;;;;;;;;;;;;;;20.66;51.01;100342.66;4569938;26;20356;-72
2024/04/14 07:27:29;;;;;;;;;;;;;;;20.63;51.00;100332.19;4570354;26;19935;-72
2024/04/14 07:29:29;;;;;;;;;;;;;;;20.75;50.73;100332.47;4569774;25;20038;-72
2024/04/14 07:31:30;;;;;;;;;;;;;;;21.10;50.13;100326.91;4568990;26;19967;-72
2024/04/14 07:33:31;;;;;;;;;;;;;;;21.41;49.49;100332.75;4569749;26;19928;-72
2024/04/14 07:35:33;;;;;;;;;;;;;;;21.50;49.21;100328.78;4570154;26;19928;-72
2024/04/14 07:37:33;;;;;;;;;;;;;;;21.32;49.59;100338.41;4569800;26;19984;-72
2024/04/14 07:39:34;;;;;;;;;;;;;;;21.29;49.86;100332.56;4569466;25;19931;-72
2024/04/14 07:41:34;;;;;;;;;;;;;;;21.55;49.39;100334.41;4568598;26;20412;-71
2024/04/14 07:43:34;;;;;;;;;;;;;;;21.75;49.18;100341.75;4569092;26;19928;-72
2024/04/14 07:45:35;;;;;;;;;;;;;;;22.05;48.43;100336.69;4563932;26;21070;-72
2024/04/14 07:47:35;;;;;;;;;;;;;;;22.35;47.89;100338.03;4560794;26;19931;-72
2024/04/14 07:49:36;;;;;;;;;;;;;;;22.64;47.68;100333.13;4517726;26;19935;-72
2024/04/14 07:51:36;;;;;;;;;;;;;;;22.17;48.21;100344.16;4552336;26;20407;-72
2024/04/14 07:53:37;;;;;;;;;;;;;;;22.10;48.62;100345.03;4560232;26;19969;-72
2024/04/14 07:55:37;;;;;;;;;;;;;;;22.23;48.44;100349.59;4561639;26;19934;-72
2024/04/14 07:57:37;;;;;;;;;;;;;;;22.64;47.97;100333.94;4536410;26;19928;-72
2024/04/14 07:59:38;;;;;;;;;;;;;;;22.33;48.33;100345.56;4566468;26;19927;-73
2024/04/14 08:01:38;;;;;;;;;;;;;;;22.23;48.70;100346.88;4567642;26;19934;-72
2024/04/14 08:03:38;;;;;;;;;;;;;;;22.47;48.43;100341.78;4568601;26;19931;-73
2024/04/14 08:05:38;;;;;;;;;;;;;;;22.50;47.98;100345.97;4569032;26;19934;-73
2024/04/14 08:07:39;;;;;;;;;;;;;;;22.54;48.17;100336.28;4567967;26;19927;-72
2024/04/14 08:09:39;;;;;;;;;;;;;;;22.59;48.26;100340.03;4568185;26;19935;-73
2024/04/14 08:11:39;;;;;;;;;;;;;;;23.00;47.16;100342.53;4567654;26;19942;-73
2024/04/14 08:13:40;;;;;;;;;;;;;;;22.70;47.79;100329.50;4568070;26;19999;-72
2024/04/14 08:15:40;;;;;;;;;;;;;;;22.63;47.78;100343.16;4535166;26;20464;-73
2024/04/14 08:17:41;;;;;;;;;;;;;;;22.63;47.58;100342.34;4568223;26;20074;-73
2024/04/14 08:19:41;;;;;;;;;;;;;;;23.24;46.50;100343.66;4567909;26;20845;-73
2024/04/14 08:21:41;;;;;;;;;;;;;;;23.27;46.53;100342.38;4568442;26;20297;-73
2024/04/14 08:23:42;;;;;;;;;;;;;;;23.37;46.40;100337.25;4568980;26;19934;-73
2024/04/14 08:25:42;;;;;;;;;;;;;;;23.66;45.33;100337.63;4568658;26;19939;-73
2024/04/14 08:27:42;;;;;;;;;;;;;;;23.56;45.91;100345.50;4567787;26;19934;-72
2024/04/14 08:29:43;;;;;;;;;;;;;;;23.65;45.40;100346.88;4569359;26;19934;-72
2024/04/14 08:31:44;;;;;;;;;;;;;;;23.45;45.92;100339.72;4569477;26;20003;-72
2024/04/14 08:33:44;;;;;;;;;;;;;;;23.83;44.86;100338.72;4568052;26;19934;-72
2024/04/14 08:35:45;;;;;;;;;;;;;;;23.97;44.18;100335.91;4567096;26;20353;-73
2024/04/14 08:37:45;;;;;;;;;;;;;;;23.77;44.68;100342.38;4566074;26;19927;-76
2024/04/14 08:39:45;;;;;;;;;;;;;;;24.18;44.10;100339.25;4535484;26;19960;-73
2024/04/14 08:41:46;;;;;;;;;;;;;;;24.03;44.59;100340.44;4567935;26;19995;-73
2024/04/14 08:43:47;;;;;;;;;;;;;;;23.84;45.02;100342.31;4568751;26;20357;-73
2024/04/14 08:45:47;;;;;;;;;;;;;;;23.84;45.10;100336.84;4567064;26;19939;-73
2024/04/14 08:47:54;;;;;;;;;;;;;;;24.28;44.38;100336.78;4568383;26;19980;-73
2024/04/14 08:49:55;;;;;;;;;;;;;;;24.66;43.25;100338.41;4535270;26;19928;-73
2024/04/14 08:51:56;;;;;;;;;;;;;;;24.38;43.39;100339.81;4535260;26;19952;-72
2024/04/14 08:53:58;;;;;;;;;;;;;;;24.82;42.93;100336.13;4535161;26;19950;-72
2024/04/14 08:56:00;;;;;;;;;;;;;;;25.29;42.34;100338.97;4568689;26;19935;-72
2024/04/14 08:58:02;;;;;;;;;;;;;;;25.01;42.55;100335.00;4567963;26;19939;-72
2024/04/14 09:00:02;;;;;;;;;;;;;;;24.64;43.17;100337.81;4532800;26;19935;-72
2024/04/14 09:02:03;;;;;;;;;;;;;;;24.76;43.05;100338.72;4566586;26;19927;-73
2024/04/14 09:04:04;;;;;;;;;;;;;;;24.89;42.66;100336.84;4567935;26;19927;-72
2024/04/14 09:06:05;;;;;;;;;;;;;;;25.23;41.79;100337.16;4567135;26;19927;-72
2024/04/14 09:08:06;;;;;;;;;;;;;;;25.25;41.73;100329.56;4567476;26;19927;-72
2024/04/14 09:10:06;;;;;;;;;;;;;;;24.96;42.18;100332.13;4566898;26;20247;-72
2024/04/14 09:12:09;;;;;;;;;;;;;;;24.73;42.55;100333.72;4567918;26;19927;-72
2024/04/14 09:14:10;;;;;;;;;;;;;;;24.71;42.24;100326.78;4567017;26;20359;-73
2024/04/14 09:16:12;;;;;;;;;;;;;;;24.23;42.94;100329.28;4568509;26;19927;-73
2024/04/14 09:18:12;;;;;;;;;;;;;;;24.06;43.39;100330.94;4567566;26;20011;-73
2024/04/14 09:20:13;;;;;;;;;;;;;;;24.72;42.07;100332.06;4567636;26;19931;-73
2024/04/14 09:22:13;;;;;;;;;;;;;;;24.65;41.68;100336.75;4566950;26;19972;-73
2024/04/14 09:24:14;;;;;;;;;;;;;;;24.65;41.59;100336.75;4567949;26;20518;-73
2024/04/14 09:26:14;;;;;;;;;;;;;;;25.33;40.00;100331.94;4567124;26;19928;-73
2024/04/14 09:28:16;;;;;;;;;;;;;;;25.30;40.13;100337.91;4568547;26;19935;-73
2024/04/14 09:30:18;;;;;;;;;;;;;;;25.46;40.06;100338.31;4570086;26;19961;-73
2024/04/14 09:32:18;;;;;;;;;;;;;;;24.95;40.10;100330.44;4570031;26;19998;-73
2024/04/14 09:34:18;;;;;;;;;;;;;;;25.40;39.23;100333.78;4569791;26;20371;-72
2024/04/14 09:36:23;;;;;;;;;;;;;;;25.68;38.31;100331.19;4568025;26;19927;-73
2024/04/14 09:38:24;;;;;;;;;;;;;;;25.37;39.04;100322.22;4569967;26;19927;-73
2024/04/14 09:40:25;;;;;;;;;;;;;;;25.62;39.02;100323.91;4570336;26;20358;-73
2024/04/14 09:42:25;;;;;;;;;;;;;;;25.20;39.34;100326.72;4570235;26;19928;-73
2024/04/14 09:44:25;;;;;;;;;;;;;;;25.33;39.05;100318.28;4538493;26;20516;-73
2024/04/14 09:46:27;;;;;;;;;;;;;;;25.88;38.19;100320.91;4569968;26;19927;-72
2024/04/14 09:48:27;;;;;;;;;;;;;;;25.67;38.06;100324.03;4570376;26;20707;-73
2024/04/14 09:50:29;;;;;;;;;;;;;;;25.69;37.79;100321.88;4570221;26;19928;-73
2024/04/14 09:52:30;;;;;;;;;;;;;;;25.97;37.66;100327.69;4569574;26;19992;-72
2024/04/14 09:54:31;;;;;;;;;;;;;;;25.87;37.43;100313.78;4570737;26;19934;-73
2024/04/14 09:56:31;;;;;;;;;;;;;;;26.55;36.37;100312.19;4568604;26;19931;-74
2024/04/14 09:58:31;;;;;;;;;;;;;;;26.61;36.48;100313.97;4537429;26;19935;-72
2024/04/14 10:00:32;;;;;;;;;;;;;;;26.56;36.18;100305.63;4567904;26;19928;-72
2024/04/14 10:02:34;;;;;;;;;;;;;;;26.88;35.44;100307.91;4568799;26;19960;-73
2024/04/14 10:04:35;;;;;;;;;;;;;;;26.87;35.51;100295.25;4567269;26;20424;-72
2024/04/14 10:06:36;;;;;;;;;;;;;;;26.86;35.46;100299.09;4570194;26;19935;-74
2024/04/14 10:08:36;;;;;;;;;;;;;;;26.93;35.54;100305.22;4569181;26;19927;-72
2024/04/14 10:10:37;;;;;;;;;;;;;;;26.91;35.49;100292.84;4569647;26;19934;-73
2024/04/14 10:12:38;;;;;;;;;;;;;;;27.34;34.43;100291.38;4565486;26;19942;-73
2024/04/14 10:14:44;;;;;;;;;;;;;;;27.07;34.95;100294.78;4568352;26;19995;-69
2024/04/14 10:16:54;;;;;;;;;;;;;;;26.97;34.87;100293.78;4568900;26;19951;-73
2024/04/14 10:19:02;;;;;;;;;;;;;;;27.02;34.61;100288.38;4549946;26;20059;-73